sensor_id;sensor_type;location;lat;lon;timestamp;pressure;altitude;pressure_sealevel;temperature
22322;BMP180;11328;53.928;18.522;2024-02-15T00:01:50;100494.00;;;8.80
22322;BMP180;11328;53.928;18.522;2024-02-15T00:04:17;100493.00;;;8.80
22322;BMP180;11328;53.928;18.522;2024-02-15T00:06:46;100500.00;;;8.80
22322;BMP180;11328;53.928;18.522;2024-02-15T00:09:13;100496.00;;;8.80
22322;BMP180;11328;53.928;18.522;2024-02-15T00:11:40;100501.00;;;8.80
22322;BMP180;11328;53.928;18.522;2024-02-15T00:14:07;100497.00;;;8.80
22322;BMP180;11328;53.928;18.522;2024-02-15T00:16:35;100490.00;;;8.80
22322;BMP180;11328;53.928;18.522;2024-02-15T00:19:03;100489.00;;;8.90
22322;BMP180;11328;53.928;18.522;2024-02-15T00:21:32;100493.00;;;8.90
22322;BMP180;11328;53.928;18.522;2024-02-15T00:23:59;100500.00;;;8.80
22322;BMP180;11328;53.928;18.522;2024-02-15T00:26:27;100493.00;;;8.80
22322;BMP180;11328;53.928;18.522;2024-02-15T00:28:54;100487.00;;;8.80
22322;BMP180;11328;53.928;18.522;2024-02-15T00:31:21;100477.00;;;8.80
22322;BMP180;11328;53.928;18.522;2024-02-15T00:33:48;100479.00;;;8.80
22322;BMP180;11328;53.928;18.522;2024-02-15T00:36:15;100478.00;;;8.80
22322;BMP180;11328;53.928;18.522;2024-02-15T00:38:42;100480.00;;;8.40
22322;BMP180;11328;53.928;18.522;2024-02-15T00:41:10;100479.00;;;8.80
22322;BMP180;11328;53.928;18.522;2024-02-15T00:43:37;100489.00;;;8.80
22322;BMP180;11328;53.928;18.522;2024-02-15T00:46:04;100487.00;;;8.80
22322;BMP180;11328;53.928;18.522;2024-02-15T00:48:31;100484.00;;;8.80
22322;BMP180;11328;53.928;18.522;2024-02-15T00:50:59;100490.00;;;8.90
22322;BMP180;11328;53.928;18.522;2024-02-15T00:53:26;100480.00;;;8.90
22322;BMP180;11328;53.928;18.522;2024-02-15T00:55:55;100480.00;;;8.90
22322;BMP180;11328;53.928;18.522;2024-02-15T00:58:22;100480.00;;;8.80
22322;BMP180;11328;53.928;18.522;2024-02-15T01:00:51;100479.00;;;8.80
22322;BMP180;11328;53.928;18.522;2024-02-15T01:03:18;100476.00;;;8.80
22322;BMP180;11328;53.928;18.522;2024-02-15T01:05:46;100475.00;;;8.90
22322;BMP180;11328;53.928;18.522;2024-02-15T01:08:13;100471.00;;;8.80
22322;BMP180;11328;53.928;18.522;2024-02-15T01:10:40;100477.00;;;8.90
22322;BMP180;11328;53.928;18.522;2024-02-15T01:13:07;100475.00;;;8.90
22322;BMP180;11328;53.928;18.522;2024-02-15T01:15:35;100477.00;;;8.80
22322;BMP180;11328;53.928;18.522;2024-02-15T01:18:04;100473.00;;;8.80
22322;BMP180;11328;53.928;18.522;2024-02-15T01:20:31;100473.00;;;8.80
22322;BMP180;11328;53.928;18.522;2024-02-15T01:22:58;100465.00;;;8.80
22322;BMP180;11328;53.928;18.522;2024-02-15T01:25:25;100470.00;;;8.80
22322;BMP180;11328;53.928;18.522;2024-02-15T01:27:54;100473.00;;;8.80
22322;BMP180;11328;53.928;18.522;2024-02-15T01:30:21;100458.00;;;8.80
22322;BMP180;11328;53.928;18.522;2024-02-15T01:32:48;100459.00;;;8.80
22322;BMP180;11328;53.928;18.522;2024-02-15T01:35:16;100461.00;;;8.70
22322;BMP180;11328;53.928;18.522;2024-02-15T01:37:43;100456.00;;;8.80
22322;BMP180;11328;53.928;18.522;2024-02-15T01:40:10;100460.00;;;8.80
22322;BMP180;11328;53.928;18.522;2024-02-15T01:42:39;100458.00;;;8.80
22322;BMP180;11328;53.928;18.522;2024-02-15T01:45:07;100453.00;;;8.80
22322;BMP180;11328;53.928;18.522;2024-02-15T01:47:38;100448.00;;;8.80
22322;BMP180;11328;53.928;18.522;2024-02-15T01:50:07;100457.00;;;8.80
22322;BMP180;11328;53.928;18.522;2024-02-15T01:52:35;100456.00;;;8.80
22322;BMP180;11328;53.928;18.522;2024-02-15T01:55:04;100447.00;;;8.80
22322;BMP180;11328;53.928;18.522;2024-02-15T01:57:36;100437.00;;;8.80
22322;BMP180;11328;53.928;18.522;2024-02-15T02:00:07;100440.00;;;8.80
22322;BMP180;11328;53.928;18.522;2024-02-15T02:02:41;100447.00;;;8.80
22322;BMP180;11328;53.928;18.522;2024-02-15T02:05:09;100439.00;;;8.80
22322;BMP180;11328;53.928;18.522;2024-02-15T02:07:37;100437.00;;;8.80
22322;BMP180;11328;53.928;18.522;2024-02-15T02:10:06;100431.00;;;8.70
22322;BMP180;11328;53.928;18.522;2024-02-15T02:12:34;100432.00;;;8.80
22322;BMP180;11328;53.928;18.522;2024-02-15T02:15:01;100435.00;;;8.80
22322;BMP180;11328;53.928;18.522;2024-02-15T02:17:28;100434.00;;;8.80
22322;BMP180;11328;53.928;18.522;2024-02-15T02:19:56;100427.00;;;8.80
22322;BMP180;11328;53.928;18.522;2024-02-15T02:22:24;100430.00;;;8.80
22322;BMP180;11328;53.928;18.522;2024-02-15T02:27:28;100426.00;;;8.80
22322;BMP180;11328;53.928;18.522;2024-02-15T02:29:55;100429.00;;;8.80
22322;BMP180;11328;53.928;18.522;2024-02-15T02:32:24;100431.00;;;8.90
22322;BMP180;11328;53.928;18.522;2024-02-15T02:34:51;100431.00;;;8.90
22322;BMP180;11328;53.928;18.522;2024-02-15T02:37:21;100435.00;;;8.90
22322;BMP180;11328;53.928;18.522;2024-02-15T02:39:48;100432.00;;;8.90
22322;BMP180;11328;53.928;18.522;2024-02-15T02:42:15;100435.00;;;9.00
22322;BMP180;11328;53.928;18.522;2024-02-15T02:44:43;100424.00;;;8.90
22322;BMP180;11328;53.928;18.522;2024-02-15T02:47:10;100400.00;;;8.90
22322;BMP180;11328;53.928;18.522;2024-02-15T02:49:37;100435.00;;;8.90
22322;BMP180;11328;53.928;18.522;2024-02-15T02:52:05;100434.00;;;8.90
22322;BMP180;11328;53.928;18.522;2024-02-15T02:54:32;100429.00;;;8.90
22322;BMP180;11328;53.928;18.522;2024-02-15T02:57:00;100433.00;;;8.80
22322;BMP180;11328;53.928;18.522;2024-02-15T02:59:27;100429.00;;;8.80
22322;BMP180;11328;53.928;18.522;2024-02-15T03:01:54;100422.00;;;8.80
22322;BMP180;11328;53.928;18.522;2024-02-15T03:04:23;100430.00;;;8.80
22322;BMP180;11328;53.928;18.522;2024-02-15T03:06:50;100428.00;;;8.80
22322;BMP180;11328;53.928;18.522;2024-02-15T03:09:18;100431.00;;;8.80
22322;BMP180;11328;53.928;18.522;2024-02-15T03:11:47;100426.00;;;8.90
22322;BMP180;11328;53.928;18.522;2024-02-15T03:14:14;100433.00;;;8.90
22322;BMP180;11328;53.928;18.522;2024-02-15T03:16:41;100437.00;;;8.90
22322;BMP180;11328;53.928;18.522;2024-02-15T03:19:08;100432.00;;;8.90
22322;BMP180;11328;53.928;18.522;2024-02-15T03:21:38;100422.00;;;8.90
22322;BMP180;11328;53.928;18.522;2024-02-15T03:24:06;100438.00;;;8.90
22322;BMP180;11328;53.928;18.522;2024-02-15T03:26:34;100441.00;;;8.90
22322;BMP180;11328;53.928;18.522;2024-02-15T03:29:05;100409.00;;;8.90
22322;BMP180;11328;53.928;18.522;2024-02-15T03:31:35;100441.00;;;8.90
22322;BMP180;11328;53.928;18.522;2024-02-15T03:34:06;100408.00;;;8.90
22322;BMP180;11328;53.928;18.522;2024-02-15T03:36:34;100436.00;;;9.00
22322;BMP180;11328;53.928;18.522;2024-02-15T03:39:01;100438.00;;;9.00
22322;BMP180;11328;53.928;18.522;2024-02-15T03:41:28;100448.00;;;9.00
22322;BMP180;11328;53.928;18.522;2024-02-15T03:43:59;100439.00;;;9.00
22322;BMP180;11328;53.928;18.522;2024-02-15T03:46:27;100440.00;;;9.00
22322;BMP180;11328;53.928;18.522;2024-02-15T03:48:54;100436.00;;;9.00
22322;BMP180;11328;53.928;18.522;2024-02-15T03:51:24;100441.00;;;9.10
22322;BMP180;11328;53.928;18.522;2024-02-15T03:53:51;100442.00;;;9.10
22322;BMP180;11328;53.928;18.522;2024-02-15T03:56:19;100431.00;;;9.10
22322;BMP180;11328;53.928;18.522;2024-02-15T03:58:48;100437.00;;;9.10
22322;BMP180;11328;53.928;18.522;2024-02-15T04:01:17;100433.00;;;9.10
22322;BMP180;11328;53.928;18.522;2024-02-15T04:03:49;100434.00;;;9.10
22322;BMP180;11328;53.928;18.522;2024-02-15T04:06:17;100429.00;;;9.10
22322;BMP180;11328;53.928;18.522;2024-02-15T04:08:44;100428.00;;;9.00
22322;BMP180;11328;53.928;18.522;2024-02-15T04:11:11;100430.00;;;9.00
22322;BMP180;11328;53.928;18.522;2024-02-15T04:13:38;100422.00;;;9.00
22322;BMP180;11328;53.928;18.522;2024-02-15T04:16:05;100426.00;;;9.00
22322;BMP180;11328;53.928;18.522;2024-02-15T04:18:32;100429.00;;;9.00
22322;BMP180;11328;53.928;18.522;2024-02-15T04:21:00;100430.00;;;9.00
22322;BMP180;11328;53.928;18.522;2024-02-15T04:23:27;100425.00;;;9.00
22322;BMP180;11328;53.928;18.522;2024-02-15T04:25:54;100424.00;;;8.90
22322;BMP180;11328;53.928;18.522;2024-02-15T04:28:21;100389.00;;;8.90
22322;BMP180;11328;53.928;18.522;2024-02-15T04:30:48;100422.00;;;8.90
22322;BMP180;11328;53.928;18.522;2024-02-15T04:33:15;100385.00;;;8.90
22322;BMP180;11328;53.928;18.522;2024-02-15T04:35:43;100425.00;;;8.90
22322;BMP180;11328;53.928;18.522;2024-02-15T04:38:11;100424.00;;;8.90
22322;BMP180;11328;53.928;18.522;2024-02-15T04:40:38;100420.00;;;8.90
22322;BMP180;11328;53.928;18.522;2024-02-15T04:43:06;100391.00;;;8.90
22322;BMP180;11328;53.928;18.522;2024-02-15T04:45:35;100421.00;;;9.00
22322;BMP180;11328;53.928;18.522;2024-02-15T04:48:03;100424.00;;;8.90
22322;BMP180;11328;53.928;18.522;2024-02-15T04:50:30;100420.00;;;8.90
22322;BMP180;11328;53.928;18.522;2024-02-15T04:52:57;100421.00;;;8.90
22322;BMP180;11328;53.928;18.522;2024-02-15T04:55:24;100422.00;;;8.90
22322;BMP180;11328;53.928;18.522;2024-02-15T04:57:53;100407.00;;;8.90
22322;BMP180;11328;53.928;18.522;2024-02-15T05:00:23;100429.00;;;8.90
22322;BMP180;11328;53.928;18.522;2024-02-15T05:02:52;100421.00;;;9.00
22322;BMP180;11328;53.928;18.522;2024-02-15T05:05:20;100417.00;;;9.00
22322;BMP180;11328;53.928;18.522;2024-02-15T05:07:48;100422.00;;;9.00
22322;BMP180;11328;53.928;18.522;2024-02-15T05:10:18;100422.00;;;9.00
22322;BMP180;11328;53.928;18.522;2024-02-15T05:12:45;100404.00;;;9.00
22322;BMP180;11328;53.928;18.522;2024-02-15T05:15:16;100390.00;;;9.00
22322;BMP180;11328;53.928;18.522;2024-02-15T05:17:45;100420.00;;;9.00
22322;BMP180;11328;53.928;18.522;2024-02-15T05:20:12;100419.00;;;8.90
22322;BMP180;11328;53.928;18.522;2024-02-15T05:22:41;100426.00;;;8.90
22322;BMP180;11328;53.928;18.522;2024-02-15T05:25:17;100390.00;;;9.00
22322;BMP180;11328;53.928;18.522;2024-02-15T05:27:52;100416.00;;;9.00
22322;BMP180;11328;53.928;18.522;2024-02-15T05:30:21;100414.00;;;9.00
22322;BMP180;11328;53.928;18.522;2024-02-15T05:32:48;100421.00;;;9.00
22322;BMP180;11328;53.928;18.522;2024-02-15T05:35:17;100421.00;;;9.10
22322;BMP180;11328;53.928;18.522;2024-02-15T05:37:44;100429.00;;;9.10
22322;BMP180;11328;53.928;18.522;2024-02-15T05:40:13;100429.00;;;9.20
22322;BMP180;11328;53.928;18.522;2024-02-15T05:42:45;100428.00;;;9.20
22322;BMP180;11328;53.928;18.522;2024-02-15T05:47:52;100442.00;;;9.30
22322;BMP180;11328;53.928;18.522;2024-02-15T05:50:20;100441.00;;;9.30
22322;BMP180;11328;53.928;18.522;2024-02-15T05:52:48;100442.00;;;9.30
22322;BMP180;11328;53.928;18.522;2024-02-15T05:55:15;100445.00;;;9.30
22322;BMP180;11328;53.928;18.522;2024-02-15T05:57:44;100443.00;;;9.40
22322;BMP180;11328;53.928;18.522;2024-02-15T06:00:12;100436.00;;;9.40
22322;BMP180;11328;53.928;18.522;2024-02-15T06:02:48;100447.00;;;9.40
22322;BMP180;11328;53.928;18.522;2024-02-15T06:05:17;100440.00;;;9.50
22322;BMP180;11328;53.928;18.522;2024-02-15T06:07:44;100441.00;;;9.50
22322;BMP180;11328;53.928;18.522;2024-02-15T06:10:14;100442.00;;;9.50
22322;BMP180;11328;53.928;18.522;2024-02-15T06:12:42;100439.00;;;9.50
22322;BMP180;11328;53.928;18.522;2024-02-15T06:15:10;100451.00;;;9.50
22322;BMP180;11328;53.928;18.522;2024-02-15T06:17:44;100452.00;;;9.60
22322;BMP180;11328;53.928;18.522;2024-02-15T06:20:15;100451.00;;;9.50
22322;BMP180;11328;53.928;18.522;2024-02-15T06:22:48;100428.00;;;9.50
22322;BMP180;11328;53.928;18.522;2024-02-15T06:25:16;100461.00;;;9.50
22322;BMP180;11328;53.928;18.522;2024-02-15T06:27:48;100459.00;;;9.50
22322;BMP180;11328;53.928;18.522;2024-02-15T06:30:15;100459.00;;;9.50
22322;BMP180;11328;53.928;18.522;2024-02-15T06:33:01;100465.00;;;9.60
22322;BMP180;11328;53.928;18.522;2024-02-15T06:35:46;100467.00;;;9.60
22322;BMP180;11328;53.928;18.522;2024-02-15T06:38:32;100466.00;;;9.60
22322;BMP180;11328;53.928;18.522;2024-02-15T06:41:18;100463.00;;;9.60
22322;BMP180;11328;53.928;18.522;2024-02-15T06:43:48;100462.00;;;9.60
22322;BMP180;11328;53.928;18.522;2024-02-15T06:46:15;100464.00;;;9.60
22322;BMP180;11328;53.928;18.522;2024-02-15T06:48:42;100470.00;;;9.60
22322;BMP180;11328;53.928;18.522;2024-02-15T06:51:13;100471.00;;;9.60
22322;BMP180;11328;53.928;18.522;2024-02-15T06:53:42;100471.00;;;9.60
22322;BMP180;11328;53.928;18.522;2024-02-15T06:56:10;100467.00;;;9.60
22322;BMP180;11328;53.928;18.522;2024-02-15T06:58:38;100467.00;;;9.60
22322;BMP180;11328;53.928;18.522;2024-02-15T07:01:07;100468.00;;;9.60
22322;BMP180;11328;53.928;18.522;2024-02-15T07:03:35;100468.00;;;9.60
22322;BMP180;11328;53.928;18.522;2024-02-15T07:06:02;100469.00;;;9.50
22322;BMP180;11328;53.928;18.522;2024-02-15T07:08:31;100463.00;;;9.50
22322;BMP180;11328;53.928;18.522;2024-02-15T07:10:59;100476.00;;;9.50
22322;BMP180;11328;53.928;18.522;2024-02-15T07:13:26;100470.00;;;9.50
22322;BMP180;11328;53.928;18.522;2024-02-15T07:15:53;100466.00;;;9.50
22322;BMP180;11328;53.928;18.522;2024-02-15T07:18:21;100463.00;;;9.60
22322;BMP180;11328;53.928;18.522;2024-02-15T07:20:55;100478.00;;;9.60
22322;BMP180;11328;53.928;18.522;2024-02-15T07:23:23;100478.00;;;9.60
22322;BMP180;11328;53.928;18.522;2024-02-15T07:25:52;100480.00;;;9.60
22322;BMP180;11328;53.928;18.522;2024-02-15T07:28:21;100483.00;;;9.70
22322;BMP180;11328;53.928;18.522;2024-02-15T07:30:48;100479.00;;;9.70
22322;BMP180;11328;53.928;18.522;2024-02-15T07:33:18;100476.00;;;9.80
22322;BMP180;11328;53.928;18.522;2024-02-15T07:35:48;100483.00;;;9.80
22322;BMP180;11328;53.928;18.522;2024-02-15T07:38:17;100481.00;;;9.80
22322;BMP180;11328;53.928;18.522;2024-02-15T07:40:45;100478.00;;;9.80
22322;BMP180;11328;53.928;18.522;2024-02-15T07:43:12;100483.00;;;9.80
22322;BMP180;11328;53.928;18.522;2024-02-15T07:45:39;100479.00;;;9.80
22322;BMP180;11328;53.928;18.522;2024-02-15T07:48:06;100479.00;;;9.70
22322;BMP180;11328;53.928;18.522;2024-02-15T07:50:33;100478.00;;;9.80
22322;BMP180;11328;53.928;18.522;2024-02-15T07:53:00;100476.00;;;9.90
22322;BMP180;11328;53.928;18.522;2024-02-15T07:55:27;100480.00;;;10.00
22322;BMP180;11328;53.928;18.522;2024-02-15T07:57:54;100476.00;;;9.90
22322;BMP180;11328;53.928;18.522;2024-02-15T08:00:22;100480.00;;;10.00
22322;BMP180;11328;53.928;18.522;2024-02-15T08:02:49;100481.00;;;10.00
22322;BMP180;11328;53.928;18.522;2024-02-15T08:05:16;100476.00;;;10.00
22322;BMP180;11328;53.928;18.522;2024-02-15T08:07:45;100481.00;;;10.00
22322;BMP180;11328;53.928;18.522;2024-02-15T08:10:12;100475.00;;;10.10
22322;BMP180;11328;53.928;18.522;2024-02-15T08:12:45;100488.00;;;10.10
22322;BMP180;11328;53.928;18.522;2024-02-15T08:15:12;100484.00;;;10.10
22322;BMP180;11328;53.928;18.522;2024-02-15T08:17:44;100493.00;;;10.20
22322;BMP180;11328;53.928;18.522;2024-02-15T08:20:14;100493.00;;;10.10
22322;BMP180;11328;53.928;18.522;2024-02-15T08:22:41;100494.00;;;10.20
22322;BMP180;11328;53.928;18.522;2024-02-15T08:25:12;100483.00;;;10.20
22322;BMP180;11328;53.928;18.522;2024-02-15T08:27:47;100493.00;;;10.10
22322;BMP180;11328;53.928;18.522;2024-02-15T08:30:17;100486.00;;;10.10
22322;BMP180;11328;53.928;18.522;2024-02-15T08:32:48;100492.00;;;10.10
22322;BMP180;11328;53.928;18.522;2024-02-15T08:35:15;100489.00;;;10.20
22322;BMP180;11328;53.928;18.522;2024-02-15T08:37:43;100494.00;;;10.30
22322;BMP180;11328;53.928;18.522;2024-02-15T08:40:14;100497.00;;;10.30
22322;BMP180;11328;53.928;18.522;2024-02-15T08:42:42;100501.00;;;10.30
22322;BMP180;11328;53.928;18.522;2024-02-15T08:45:11;100499.00;;;10.30
22322;BMP180;11328;53.928;18.522;2024-02-15T08:47:41;100493.00;;;10.30
22322;BMP180;11328;53.928;18.522;2024-02-15T08:50:11;100486.00;;;10.50
22322;BMP180;11328;53.928;18.522;2024-02-15T08:52:39;100498.00;;;10.50
22322;BMP180;11328;53.928;18.522;2024-02-15T08:55:09;100487.00;;;10.60
22322;BMP180;11328;53.928;18.522;2024-02-15T08:57:37;100495.00;;;10.60
22322;BMP180;11328;53.928;18.522;2024-02-15T09:00:08;100489.00;;;10.60
22322;BMP180;11328;53.928;18.522;2024-02-15T09:02:41;100472.00;;;10.60
22322;BMP180;11328;53.928;18.522;2024-02-15T09:05:08;100498.00;;;10.60
22322;BMP180;11328;53.928;18.522;2024-02-15T09:07:36;100503.00;;;10.60
22322;BMP180;11328;53.928;18.522;2024-02-15T09:10:04;100510.00;;;10.60
22322;BMP180;11328;53.928;18.522;2024-02-15T09:12:34;100505.00;;;10.60
22322;BMP180;11328;53.928;18.522;2024-02-15T09:15:01;100508.00;;;10.50
22322;BMP180;11328;53.928;18.522;2024-02-15T09:17:28;100505.00;;;10.60
22322;BMP180;11328;53.928;18.522;2024-02-15T09:19:58;100499.00;;;10.60
22322;BMP180;11328;53.928;18.522;2024-02-15T09:22:25;100509.00;;;10.50
22322;BMP180;11328;53.928;18.522;2024-02-15T09:24:54;100509.00;;;10.60
22322;BMP180;11328;53.928;18.522;2024-02-15T09:27:21;100509.00;;;10.60
22322;BMP180;11328;53.928;18.522;2024-02-15T09:29:48;100512.00;;;10.80
22322;BMP180;11328;53.928;18.522;2024-02-15T09:32:15;100517.00;;;10.70
22322;BMP180;11328;53.928;18.522;2024-02-15T09:34:42;100520.00;;;10.70
22322;BMP180;11328;53.928;18.522;2024-02-15T09:37:09;100512.00;;;10.80
22322;BMP180;11328;53.928;18.522;2024-02-15T09:39:37;100510.00;;;10.70
22322;BMP180;11328;53.928;18.522;2024-02-15T09:42:05;100518.00;;;10.80
22322;BMP180;11328;53.928;18.522;2024-02-15T09:44:32;100520.00;;;10.80
22322;BMP180;11328;53.928;18.522;2024-02-15T09:47:05;100515.00;;;10.80
22322;BMP180;11328;53.928;18.522;2024-02-15T09:49:39;100526.00;;;10.90
22322;BMP180;11328;53.928;18.522;2024-02-15T09:52:08;100529.00;;;10.90
22322;BMP180;11328;53.928;18.522;2024-02-15T09:54:43;100531.00;;;10.90
22322;BMP180;11328;53.928;18.522;2024-02-15T09:57:11;100526.00;;;10.80
22322;BMP180;11328;53.928;18.522;2024-02-15T09:59:39;100523.00;;;10.70
22322;BMP180;11328;53.928;18.522;2024-02-15T10:02:07;100525.00;;;10.80
22322;BMP180;11328;53.928;18.522;2024-02-15T10:04:39;100521.00;;;10.80
22322;BMP180;11328;53.928;18.522;2024-02-15T10:07:07;100516.00;;;10.90
22322;BMP180;11328;53.928;18.522;2024-02-15T10:09:36;100518.00;;;11.00
22322;BMP180;11328;53.928;18.522;2024-02-15T10:12:09;100525.00;;;11.00
22322;BMP180;11328;53.928;18.522;2024-02-15T10:14:36;100531.00;;;11.00
22322;BMP180;11328;53.928;18.522;2024-02-15T10:17:08;100536.00;;;11.10
22322;BMP180;11328;53.928;18.522;2024-02-15T10:19:38;100525.00;;;11.10
22322;BMP180;11328;53.928;18.522;2024-02-15T10:22:07;100531.00;;;11.10
22322;BMP180;11328;53.928;18.522;2024-02-15T10:24:35;100527.00;;;11.10
22322;BMP180;11328;53.928;18.522;2024-02-15T10:27:04;100524.00;;;11.10
22322;BMP180;11328;53.928;18.522;2024-02-15T10:29:34;100522.00;;;11.10
22322;BMP180;11328;53.928;18.522;2024-02-15T10:32:03;100525.00;;;11.20
22322;BMP180;11328;53.928;18.522;2024-02-15T10:34:31;100522.00;;;11.10
22322;BMP180;11328;53.928;18.522;2024-02-15T10:37:13;100518.00;;;11.10
22322;BMP180;11328;53.928;18.522;2024-02-15T10:39:40;100511.00;;;11.10
22322;BMP180;11328;53.928;18.522;2024-02-15T10:42:08;100520.00;;;11.10
22322;BMP180;11328;53.928;18.522;2024-02-15T10:44:38;100513.00;;;11.20
22322;BMP180;11328;53.928;18.522;2024-02-15T10:47:08;100518.00;;;11.30
22322;BMP180;11328;53.928;18.522;2024-02-15T10:49:35;100518.00;;;11.30
22322;BMP180;11328;53.928;18.522;2024-02-15T10:52:05;100515.00;;;11.30
22322;BMP180;11328;53.928;18.522;2024-02-15T10:55:09;100509.00;;;11.40
22322;BMP180;11328;53.928;18.522;2024-02-15T10:57:46;100495.00;;;11.30
22322;BMP180;11328;53.928;18.522;2024-02-15T11:00:18;100510.00;;;11.30
22322;BMP180;11328;53.928;18.522;2024-02-15T11:03:02;100510.00;;;11.40
22322;BMP180;11328;53.928;18.522;2024-02-15T11:05:33;100504.00;;;11.30
22322;BMP180;11328;53.928;18.522;2024-02-15T11:08:06;100499.00;;;11.30
22322;BMP180;11328;53.928;18.522;2024-02-15T11:10:36;100511.00;;;11.40
22322;BMP180;11328;53.928;18.522;2024-02-15T11:13:05;100508.00;;;11.50
22322;BMP180;11328;53.928;18.522;2024-02-15T11:15:45;100505.00;;;11.30
22322;BMP180;11328;53.928;18.522;2024-02-15T11:18:48;100518.00;;;11.30
22322;BMP180;11328;53.928;18.522;2024-02-15T11:21:52;100505.00;;;11.40
22322;BMP180;11328;53.928;18.522;2024-02-15T11:24:30;100502.00;;;11.50
22322;BMP180;11328;53.928;18.522;2024-02-15T11:27:05;100501.00;;;11.60
22322;BMP180;11328;53.928;18.522;2024-02-15T11:29:53;100502.00;;;11.70
22322;BMP180;11328;53.928;18.522;2024-02-15T11:35:26;100492.00;;;11.70
22322;BMP180;11328;53.928;18.522;2024-02-15T11:37:59;100457.00;;;11.80
22322;BMP180;11328;53.928;18.522;2024-02-15T11:43:09;100489.00;;;11.90
22322;BMP180;11328;53.928;18.522;2024-02-15T11:45:38;100490.00;;;11.80
22322;BMP180;11328;53.928;18.522;2024-02-15T11:48:14;100495.00;;;11.90
22322;BMP180;11328;53.928;18.522;2024-02-15T11:50:42;100492.00;;;12.00
22322;BMP180;11328;53.928;18.522;2024-02-15T11:53:10;100490.00;;;12.00
22322;BMP180;11328;53.928;18.522;2024-02-15T11:55:40;100502.00;;;12.10
22322;BMP180;11328;53.928;18.522;2024-02-15T11:58:09;100493.00;;;12.00
22322;BMP180;11328;53.928;18.522;2024-02-15T12:00:38;100497.00;;;12.10
22322;BMP180;11328;53.928;18.522;2024-02-15T12:03:25;100468.00;;;12.10
22322;BMP180;11328;53.928;18.522;2024-02-15T12:06:30;100493.00;;;12.10
22322;BMP180;11328;53.928;18.522;2024-02-15T12:09:20;100498.00;;;12.10
22322;BMP180;11328;53.928;18.522;2024-02-15T12:12:06;100468.00;;;12.10
22322;BMP180;11328;53.928;18.522;2024-02-15T12:15:00;100496.00;;;12.10
22322;BMP180;11328;53.928;18.522;2024-02-15T12:17:45;100495.00;;;12.00
22322;BMP180;11328;53.928;18.522;2024-02-15T12:20:32;100505.00;;;12.00
22322;BMP180;11328;53.928;18.522;2024-02-15T12:22:59;100492.00;;;11.90
22322;BMP180;11328;53.928;18.522;2024-02-15T12:25:30;100494.00;;;12.00
22322;BMP180;11328;53.928;18.522;2024-02-15T12:28:00;100485.00;;;12.00
22322;BMP180;11328;53.928;18.522;2024-02-15T12:30:35;100483.00;;;12.00
22322;BMP180;11328;53.928;18.522;2024-02-15T12:33:13;100491.00;;;12.00
22322;BMP180;11328;53.928;18.522;2024-02-15T12:35:47;100490.00;;;11.90
22322;BMP180;11328;53.928;18.522;2024-02-15T12:38:14;100490.00;;;11.90
22322;BMP180;11328;53.928;18.522;2024-02-15T12:40:45;100481.00;;;12.00
22322;BMP180;11328;53.928;18.522;2024-02-15T12:43:15;100492.00;;;12.00
22322;BMP180;11328;53.928;18.522;2024-02-15T12:45:43;100491.00;;;11.90
22322;BMP180;11328;53.928;18.522;2024-02-15T12:48:10;100484.00;;;12.00
22322;BMP180;11328;53.928;18.522;2024-02-15T12:50:42;100497.00;;;12.10
22322;BMP180;11328;53.928;18.522;2024-02-15T12:53:09;100490.00;;;12.10
22322;BMP180;11328;53.928;18.522;2024-02-15T12:55:37;100479.00;;;12.00
22322;BMP180;11328;53.928;18.522;2024-02-15T12:58:12;100486.00;;;12.10
22322;BMP180;11328;53.928;18.522;2024-02-15T13:00:40;100479.00;;;12.10
22322;BMP180;11328;53.928;18.522;2024-02-15T13:03:09;100486.00;;;12.30
22322;BMP180;11328;53.928;18.522;2024-02-15T13:05:41;100486.00;;;12.40
22322;BMP180;11328;53.928;18.522;2024-02-15T13:08:08;100489.00;;;12.50
22322;BMP180;11328;53.928;18.522;2024-02-15T13:10:41;100490.00;;;12.60
22322;BMP180;11328;53.928;18.522;2024-02-15T13:13:09;100467.00;;;12.70
22322;BMP180;11328;53.928;18.522;2024-02-15T13:15:37;100470.00;;;12.70
22322;BMP180;11328;53.928;18.522;2024-02-15T13:18:06;100489.00;;;12.70
22322;BMP180;11328;53.928;18.522;2024-02-15T13:20:37;100493.00;;;12.90
22322;BMP180;11328;53.928;18.522;2024-02-15T13:23:08;100491.00;;;12.90
22322;BMP180;11328;53.928;18.522;2024-02-15T13:25:37;100487.00;;;13.00
22322;BMP180;11328;53.928;18.522;2024-02-15T13:28:06;100500.00;;;13.00
22322;BMP180;11328;53.928;18.522;2024-02-15T13:30:36;100502.00;;;12.90
22322;BMP180;11328;53.928;18.522;2024-02-15T13:33:04;100501.00;;;12.90
22322;BMP180;11328;53.928;18.522;2024-02-15T13:35:32;100497.00;;;12.80
22322;BMP180;11328;53.928;18.522;2024-02-15T13:37:59;100493.00;;;12.90
22322;BMP180;11328;53.928;18.522;2024-02-15T13:40:28;100495.00;;;12.90
22322;BMP180;11328;53.928;18.522;2024-02-15T13:43:00;100506.00;;;12.90
22322;BMP180;11328;53.928;18.522;2024-02-15T13:45:43;100494.00;;;12.90
22322;BMP180;11328;53.928;18.522;2024-02-15T13:48:11;100492.00;;;12.90
22322;BMP180;11328;53.928;18.522;2024-02-15T13:50:43;100486.00;;;12.90
22322;BMP180;11328;53.928;18.522;2024-02-15T13:53:12;100466.00;;;13.00
22322;BMP180;11328;53.928;18.522;2024-02-15T13:55:41;100492.00;;;13.10
22322;BMP180;11328;53.928;18.522;2024-02-15T13:58:08;100487.00;;;13.20
22322;BMP180;11328;53.928;18.522;2024-02-15T14:00:41;100495.00;;;13.20
22322;BMP180;11328;53.928;18.522;2024-02-15T14:03:11;100468.00;;;13.20
22322;BMP180;11328;53.928;18.522;2024-02-15T14:05:40;100467.00;;;13.30
22322;BMP180;11328;53.928;18.522;2024-02-15T14:08:10;100482.00;;;13.40
22322;BMP180;11328;53.928;18.522;2024-02-15T14:10:42;100484.00;;;13.40
22322;BMP180;11328;53.928;18.522;2024-02-15T14:13:09;100484.00;;;13.30
22322;BMP180;11328;53.928;18.522;2024-02-15T14:15:38;100489.00;;;13.20
22322;BMP180;11328;53.928;18.522;2024-02-15T14:18:14;100491.00;;;13.20